メインページ
METAR-TAF:

METAR-TAF

空港 :

東京国際空港

東京 / 羽田国際空港, 日本

緯度: 35-33N, 経度: 139-47E, 海抜: 5m

現時点の気象観測

当レポートは43分前の08:00(UTC)に作成
北東の風 7kt、から東/北東の間で変化する
気温 9°C
湿度 49%
気圧 1020 hPa
視程10km以上
高度3000ftの雲はほとんどない
高度5000ftの千切れ雲あり
高度7000ftの千切れ雲あり
近辺でにわか雨

METAR: RJTT 130800Z 04007KT 360V060 9999 VCSH FEW030 BKN050 BKN070 09/M01 Q1020 NOSIG RMK 1CU030 5SC050 7AC070 A3013

時間: 17:43 (08:43 UTC)

予報

当レポートは59分前の07:44(UTC)に作成
予報は13日の 07時(UTC)から 14日の 12時(UTC)まで有効
北東の風 6kt
視程10km以上
高度3000ftの雲はほとんどない
高度5000ftの千切れ雲あり
13日の 12時(UTC)から 13日の 14時(UTC)まで徐々に
南/南西の風 8kt
13日の 18時(UTC)から 13日の 21時(UTC)まで徐々に
西の風 8kt
13日の 21時(UTC)から 14日の 00時(UTC)まで徐々に
北/北西の風 18kt

TAF: RJTT 130744Z 1307/1412 04006KT 9999 FEW030 BKN050 BECMG 1312/1314 20008KT BECMG 1318/1321 28008KT BECMG 1321/1400 34018KT

4,000以上の空港の気象観測と天気予報(METAR報とTAF報)

利用可能な観測所は地図上に黄色い丸と赤い丸で示す。

丸の上にカーソルを重ねると観測所名を参照できる。

次にクリックすると気象観測と天気予報を参照できる。

マップの切り替え:黒色「×」印の緑ボタンをクリックして拡大、「-」印の緑ボタンをクリックして縮小、緑色の三角印をクリックして隣りの地図に切り替え


METAR-TAF: